Philadelphia, Pennsylvania
Traffic Map
Current Weather Conditions
Philadelphia, Pennsylvania
Scattered Clouds
Scattered Clouds
88°
Feels Like: 91°
Wind Chill: 88° Ceiling: Unl
Heat Index: 91° Visibility: 10mi
Dew Point: 67° Wind: 5mph
Humidity: 49% Direction: 130° (SE)
Pressure: 29.86in Gusts: 0mph
Raw Report DataKPHL 292154Z 13004KT 10SM SCT055 SCT070 31/19 A2986 RMK AO2 SLP111 T03110194 $
Traffic Incident Summary
Active as of:
Severity:
Category:
InformationThere was an issue retrieving the traffic information for this location. Please try a different location or try again shortly.
Advertisements
Track Severe Weather on mobile